sensor_id;sensor_type;location;lat;lon;timestamp;P1;durP1;ratioP1;P2;durP2;ratioP2
351;SDS011;164;50.784;6.496;2023-05-16T00:00:04;10.15;;;9.65;;
351;SDS011;164;50.784;6.496;2023-05-16T00:02:33;10.50;;;9.90;;
351;SDS011;164;50.784;6.496;2023-05-16T00:05:01;12.80;;;9.30;;
351;SDS011;164;50.784;6.496;2023-05-16T00:07:32;9.25;;;8.75;;
351;SDS011;164;50.784;6.496;2023-05-16T00:09:59;10.35;;;9.15;;
351;SDS011;164;50.784;6.496;2023-05-16T00:12:28;10.73;;;9.25;;
351;SDS011;164;50.784;6.496;2023-05-16T00:14:56;9.07;;;8.57;;
351;SDS011;164;50.784;6.496;2023-05-16T00:17:24;8.43;;;7.97;;
351;SDS011;164;50.784;6.496;2023-05-16T00:19:53;8.60;;;7.75;;
351;SDS011;164;50.784;6.496;2023-05-16T00:22:22;8.82;;;8.15;;
351;SDS011;164;50.784;6.496;2023-05-16T00:24:49;8.18;;;7.43;;
351;SDS011;164;50.784;6.496;2023-05-16T00:27:18;9.00;;;8.18;;
351;SDS011;164;50.784;6.496;2023-05-16T00:29:46;6.13;;;5.82;;
351;SDS011;164;50.784;6.496;2023-05-16T00:32:14;7.38;;;6.97;;
351;SDS011;164;50.784;6.496;2023-05-16T00:34:41;8.70;;;6.88;;
351;SDS011;164;50.784;6.496;2023-05-16T00:37:08;7.55;;;7.15;;
351;SDS011;164;50.784;6.496;2023-05-16T00:39:35;8.93;;;5.82;;
351;SDS011;164;50.784;6.496;2023-05-16T00:42:03;7.47;;;6.13;;
351;SDS011;164;50.784;6.496;2023-05-16T00:44:30;6.03;;;4.80;;
351;SDS011;164;50.784;6.496;2023-05-16T00:46:58;5.57;;;5.28;;
351;SDS011;164;50.784;6.496;2023-05-16T00:49:26;9.10;;;4.63;;
351;SDS011;164;50.784;6.496;2023-05-16T00:51:54;4.25;;;3.97;;
351;SDS011;164;50.784;6.496;2023-05-16T00:54:22;4.50;;;3.70;;
351;SDS011;164;50.784;6.496;2023-05-16T00:56:50;5.85;;;3.78;;
351;SDS011;164;50.784;6.496;2023-05-16T00:59:17;3.47;;;3.30;;
351;SDS011;164;50.784;6.496;2023-05-16T01:01:45;3.67;;;3.47;;
351;SDS011;164;50.784;6.496;2023-05-16T01:04:14;3.40;;;3.20;;
351;SDS011;164;50.784;6.496;2023-05-16T01:06:41;3.60;;;3.40;;
351;SDS011;164;50.784;6.496;2023-05-16T01:09:09;3.05;;;2.85;;
351;SDS011;164;50.784;6.496;2023-05-16T01:11:38;3.58;;;3.38;;
351;SDS011;164;50.784;6.496;2023-05-16T01:14:09;4.20;;;3.95;;
351;SDS011;164;50.784;6.496;2023-05-16T01:16:39;4.90;;;4.45;;
351;SDS011;164;50.784;6.496;2023-05-16T01:19:12;4.68;;;4.32;;
351;SDS011;164;50.784;6.496;2023-05-16T01:21:47;4.88;;;4.60;;
351;SDS011;164;50.784;6.496;2023-05-16T01:24:20;5.15;;;4.85;;
351;SDS011;164;50.784;6.496;2023-05-16T01:26:50;5.35;;;5.05;;
351;SDS011;164;50.784;6.496;2023-05-16T01:29:18;6.10;;;5.05;;
351;SDS011;164;50.784;6.496;2023-05-16T01:31:45;7.63;;;4.95;;
351;SDS011;164;50.784;6.496;2023-05-16T01:34:12;5.75;;;4.68;;
351;SDS011;164;50.784;6.496;2023-05-16T01:36:41;5.65;;;4.93;;
351;SDS011;164;50.784;6.496;2023-05-16T01:39:11;6.38;;;5.78;;
351;SDS011;164;50.784;6.496;2023-05-16T01:41:42;5.65;;;5.30;;
351;SDS011;164;50.784;6.496;2023-05-16T01:44:15;8.63;;;5.90;;
351;SDS011;164;50.784;6.496;2023-05-16T01:46:45;6.20;;;5.00;;
351;SDS011;164;50.784;6.496;2023-05-16T01:49:14;6.50;;;5.95;;
351;SDS011;164;50.784;6.496;2023-05-16T01:51:44;6.18;;;5.70;;
351;SDS011;164;50.784;6.496;2023-05-16T01:54:13;6.55;;;6.15;;
351;SDS011;164;50.784;6.496;2023-05-16T01:56:41;5.97;;;5.55;;
351;SDS011;164;50.784;6.496;2023-05-16T01:59:12;10.15;;;6.32;;
351;SDS011;164;50.784;6.496;2023-05-16T02:01:41;9.02;;;6.78;;
351;SDS011;164;50.784;6.496;2023-05-16T02:04:08;8.93;;;6.68;;
351;SDS011;164;50.784;6.496;2023-05-16T02:06:35;8.98;;;6.75;;
351;SDS011;164;50.784;6.496;2023-05-16T02:09:03;12.00;;;7.05;;
351;SDS011;164;50.784;6.496;2023-05-16T02:11:30;11.95;;;6.60;;
351;SDS011;164;50.784;6.496;2023-05-16T02:13:57;13.40;;;6.93;;
351;SDS011;164;50.784;6.496;2023-05-16T02:16:24;9.45;;;6.70;;
351;SDS011;164;50.784;6.496;2023-05-16T02:18:53;8.40;;;6.30;;
351;SDS011;164;50.784;6.496;2023-05-16T02:21:20;15.35;;;6.10;;
351;SDS011;164;50.784;6.496;2023-05-16T02:23:48;9.40;;;6.57;;
351;SDS011;164;50.784;6.496;2023-05-16T02:26:15;11.73;;;6.65;;
351;SDS011;164;50.784;6.496;2023-05-16T02:28:42;5.97;;;5.68;;
351;SDS011;164;50.784;6.496;2023-05-16T02:31:10;12.02;;;7.22;;
351;SDS011;164;50.784;6.496;2023-05-16T02:33:37;12.48;;;6.85;;
351;SDS011;164;50.784;6.496;2023-05-16T02:36:07;16.92;;;6.55;;
351;SDS011;164;50.784;6.496;2023-05-16T02:38:35;13.35;;;7.38;;
351;SDS011;164;50.784;6.496;2023-05-16T02:41:02;8.32;;;6.00;;
351;SDS011;164;50.784;6.496;2023-05-16T02:43:29;11.88;;;6.90;;
351;SDS011;164;50.784;6.496;2023-05-16T02:45:57;8.52;;;6.45;;
351;SDS011;164;50.784;6.496;2023-05-16T02:48:24;12.77;;;6.60;;
351;SDS011;164;50.784;6.496;2023-05-16T02:50:51;8.20;;;6.35;;
351;SDS011;164;50.784;6.496;2023-05-16T02:53:20;7.63;;;5.90;;
351;SDS011;164;50.784;6.496;2023-05-16T02:55:47;9.40;;;7.13;;
351;SDS011;164;50.784;6.496;2023-05-16T02:58:14;11.35;;;6.95;;
351;SDS011;164;50.784;6.496;2023-05-16T03:00:41;17.13;;;6.90;;
351;SDS011;164;50.784;6.496;2023-05-16T03:03:09;11.27;;;6.90;;
351;SDS011;164;50.784;6.496;2023-05-16T03:05:36;17.60;;;6.70;;
351;SDS011;164;50.784;6.496;2023-05-16T03:08:04;12.23;;;7.97;;
351;SDS011;164;50.784;6.496;2023-05-16T03:10:32;8.88;;;7.30;;
351;SDS011;164;50.784;6.496;2023-05-16T03:12:59;14.23;;;6.93;;
351;SDS011;164;50.784;6.496;2023-05-16T03:15:26;7.95;;;5.97;;
351;SDS011;164;50.784;6.496;2023-05-16T03:17:54;13.68;;;6.72;;
351;SDS011;164;50.784;6.496;2023-05-16T03:20:21;10.52;;;6.32;;
351;SDS011;164;50.784;6.496;2023-05-16T03:22:48;17.77;;;7.55;;
351;SDS011;164;50.784;6.496;2023-05-16T03:25:15;13.50;;;6.63;;
351;SDS011;164;50.784;6.496;2023-05-16T03:27:44;14.85;;;6.57;;
351;SDS011;164;50.784;6.496;2023-05-16T03:30:11;9.38;;;5.50;;
351;SDS011;164;50.784;6.496;2023-05-16T03:32:39;10.13;;;6.20;;
351;SDS011;164;50.784;6.496;2023-05-16T03:35:06;14.52;;;6.05;;
351;SDS011;164;50.784;6.496;2023-05-16T03:37:33;12.10;;;6.63;;
351;SDS011;164;50.784;6.496;2023-05-16T03:40:01;10.48;;;5.60;;
351;SDS011;164;50.784;6.496;2023-05-16T03:42:30;13.82;;;5.97;;
351;SDS011;164;50.784;6.496;2023-05-16T03:44:58;13.65;;;6.35;;
351;SDS011;164;50.784;6.496;2023-05-16T03:47:26;10.30;;;6.25;;
351;SDS011;164;50.784;6.496;2023-05-16T03:49:55;15.15;;;5.40;;
351;SDS011;164;50.784;6.496;2023-05-16T03:52:23;15.60;;;6.35;;
351;SDS011;164;50.784;6.496;2023-05-16T03:54:50;12.57;;;6.53;;
351;SDS011;164;50.784;6.496;2023-05-16T03:57:17;14.75;;;6.25;;
351;SDS011;164;50.784;6.496;2023-05-16T03:59:44;16.25;;;6.22;;
351;SDS011;164;50.784;6.496;2023-05-16T04:02:13;10.10;;;4.75;;
351;SDS011;164;50.784;6.496;2023-05-16T04:04:40;8.68;;;4.63;;
351;SDS011;164;50.784;6.496;2023-05-16T04:07:07;11.90;;;4.88;;
351;SDS011;164;50.784;6.496;2023-05-16T04:09:34;18.38;;;6.45;;
351;SDS011;164;50.784;6.496;2023-05-16T04:12:01;15.88;;;5.13;;
351;SDS011;164;50.784;6.496;2023-05-16T04:14:29;10.10;;;4.88;;
351;SDS011;164;50.784;6.496;2023-05-16T04:16:56;12.30;;;5.00;;
351;SDS011;164;50.784;6.496;2023-05-16T04:19:25;10.85;;;5.70;;
351;SDS011;164;50.784;6.496;2023-05-16T04:21:52;13.82;;;4.80;;
351;SDS011;164;50.784;6.496;2023-05-16T04:24:19;14.85;;;5.35;;
351;SDS011;164;50.784;6.496;2023-05-16T04:26:51;7.22;;;3.95;;
351;SDS011;164;50.784;6.496;2023-05-16T04:29:19;15.10;;;4.75;;
351;SDS011;164;50.784;6.496;2023-05-16T04:31:46;12.30;;;5.03;;
351;SDS011;164;50.784;6.496;2023-05-16T04:34:13;10.05;;;4.78;;
351;SDS011;164;50.784;6.496;2023-05-16T04:36:42;11.73;;;4.93;;
351;SDS011;164;50.784;6.496;2023-05-16T04:39:09;15.02;;;4.70;;
351;SDS011;164;50.784;6.496;2023-05-16T04:41:37;13.75;;;5.32;;
351;SDS011;164;50.784;6.496;2023-05-16T04:44:04;12.77;;;4.38;;
351;SDS011;164;50.784;6.496;2023-05-16T04:46:32;11.02;;;4.03;;
351;SDS011;164;50.784;6.496;2023-05-16T04:48:59;17.88;;;5.30;;
351;SDS011;164;50.784;6.496;2023-05-16T04:51:26;11.27;;;4.35;;
351;SDS011;164;50.784;6.496;2023-05-16T04:53:55;9.40;;;3.70;;
351;SDS011;164;50.784;6.496;2023-05-16T04:56:22;8.70;;;3.83;;
351;SDS011;164;50.784;6.496;2023-05-16T04:58:50;14.35;;;5.07;;
351;SDS011;164;50.784;6.496;2023-05-16T05:01:18;11.55;;;4.97;;
351;SDS011;164;50.784;6.496;2023-05-16T05:03:45;12.18;;;5.18;;
351;SDS011;164;50.784;6.496;2023-05-16T05:06:13;13.15;;;4.28;;
351;SDS011;164;50.784;6.496;2023-05-16T05:08:40;12.38;;;4.40;;
351;SDS011;164;50.784;6.496;2023-05-16T05:11:09;8.93;;;3.78;;
351;SDS011;164;50.784;6.496;2023-05-16T05:13:36;12.07;;;5.15;;
351;SDS011;164;50.784;6.496;2023-05-16T05:16:04;13.48;;;4.68;;
351;SDS011;164;50.784;6.496;2023-05-16T05:18:31;13.70;;;5.18;;
351;SDS011;164;50.784;6.496;2023-05-16T05:20:58;9.50;;;4.07;;
351;SDS011;164;50.784;6.496;2023-05-16T05:23:26;11.50;;;4.63;;
351;SDS011;164;50.784;6.496;2023-05-16T05:25:53;10.10;;;4.35;;
351;SDS011;164;50.784;6.496;2023-05-16T05:28:21;10.95;;;5.00;;
351;SDS011;164;50.784;6.496;2023-05-16T05:30:48;10.77;;;3.50;;
351;SDS011;164;50.784;6.496;2023-05-16T05:33:16;9.88;;;3.75;;
351;SDS011;164;50.784;6.496;2023-05-16T05:35:43;7.03;;;3.55;;
351;SDS011;164;50.784;6.496;2023-05-16T05:38:10;10.40;;;3.63;;
351;SDS011;164;50.784;6.496;2023-05-16T05:40:38;12.27;;;3.75;;
351;SDS011;164;50.784;6.496;2023-05-16T05:43:05;13.40;;;3.72;;
351;SDS011;164;50.784;6.496;2023-05-16T05:45:33;11.32;;;3.97;;
351;SDS011;164;50.784;6.496;2023-05-16T05:48:01;15.07;;;4.22;;
351;SDS011;164;50.784;6.496;2023-05-16T05:50:29;11.40;;;4.00;;
351;SDS011;164;50.784;6.496;2023-05-16T05:52:56;13.40;;;4.70;;
351;SDS011;164;50.784;6.496;2023-05-16T05:55:23;16.48;;;5.28;;
351;SDS011;164;50.784;6.496;2023-05-16T05:57:50;10.40;;;3.78;;
351;SDS011;164;50.784;6.496;2023-05-16T06:00:17;13.65;;;4.35;;
351;SDS011;164;50.784;6.496;2023-05-16T06:02:46;11.57;;;3.30;;
351;SDS011;164;50.784;6.496;2023-05-16T06:05:14;8.18;;;3.33;;
351;SDS011;164;50.784;6.496;2023-05-16T06:07:41;12.65;;;3.70;;
351;SDS011;164;50.784;6.496;2023-05-16T06:10:08;7.90;;;3.80;;
351;SDS011;164;50.784;6.496;2023-05-16T06:12:35;14.38;;;4.70;;
351;SDS011;164;50.784;6.496;2023-05-16T06:15:03;10.40;;;4.10;;
351;SDS011;164;50.784;6.496;2023-05-16T06:17:30;12.23;;;4.45;;
351;SDS011;164;50.784;6.496;2023-05-16T06:19:59;8.73;;;4.30;;
351;SDS011;164;50.784;6.496;2023-05-16T06:22:26;5.10;;;3.45;;
351;SDS011;164;50.784;6.496;2023-05-16T06:24:56;9.73;;;3.85;;
351;SDS011;164;50.784;6.496;2023-05-16T06:27:23;7.97;;;3.78;;
351;SDS011;164;50.784;6.496;2023-05-16T06:29:50;11.82;;;4.07;;
351;SDS011;164;50.784;6.496;2023-05-16T06:32:17;10.05;;;3.00;;
351;SDS011;164;50.784;6.496;2023-05-16T06:34:44;8.75;;;3.25;;
351;SDS011;164;50.784;6.496;2023-05-16T06:37:13;7.88;;;3.00;;
351;SDS011;164;50.784;6.496;2023-05-16T06:39:40;8.02;;;4.00;;
351;SDS011;164;50.784;6.496;2023-05-16T06:42:07;6.35;;;3.13;;
351;SDS011;164;50.784;6.496;2023-05-16T06:44:35;9.82;;;3.20;;
351;SDS011;164;50.784;6.496;2023-05-16T06:47:02;10.05;;;3.60;;
351;SDS011;164;50.784;6.496;2023-05-16T06:49:29;7.43;;;2.47;;
351;SDS011;164;50.784;6.496;2023-05-16T06:51:56;5.60;;;2.75;;
351;SDS011;164;50.784;6.496;2023-05-16T06:54:25;13.90;;;3.08;;
351;SDS011;164;50.784;6.496;2023-05-16T06:56:52;5.38;;;2.40;;
351;SDS011;164;50.784;6.496;2023-05-16T06:59:19;9.23;;;3.60;;
351;SDS011;164;50.784;6.496;2023-05-16T07:01:46;7.43;;;2.72;;
351;SDS011;164;50.784;6.496;2023-05-16T07:04:13;8.30;;;3.30;;
351;SDS011;164;50.784;6.496;2023-05-16T07:06:40;6.78;;;3.00;;
351;SDS011;164;50.784;6.496;2023-05-16T07:09:08;6.10;;;2.05;;
351;SDS011;164;50.784;6.496;2023-05-16T07:11:36;6.55;;;2.53;;
351;SDS011;164;50.784;6.496;2023-05-16T07:14:04;9.23;;;2.83;;
351;SDS011;164;50.784;6.496;2023-05-16T07:16:31;6.30;;;2.40;;
351;SDS011;164;50.784;6.496;2023-05-16T07:18:58;7.07;;;3.25;;
351;SDS011;164;50.784;6.496;2023-05-16T07:21:25;3.10;;;1.88;;
351;SDS011;164;50.784;6.496;2023-05-16T07:23:53;13.77;;;3.50;;
351;SDS011;164;50.784;6.496;2023-05-16T07:26:20;5.00;;;2.53;;
351;SDS011;164;50.784;6.496;2023-05-16T07:28:49;8.20;;;2.40;;
351;SDS011;164;50.784;6.496;2023-05-16T07:31:16;4.25;;;2.10;;
351;SDS011;164;50.784;6.496;2023-05-16T07:33:44;3.92;;;2.38;;
351;SDS011;164;50.784;6.496;2023-05-16T07:36:13;10.65;;;2.80;;
351;SDS011;164;50.784;6.496;2023-05-16T07:38:40;7.30;;;2.60;;
351;SDS011;164;50.784;6.496;2023-05-16T07:41:09;8.57;;;2.05;;
351;SDS011;164;50.784;6.496;2023-05-16T07:43:36;11.27;;;3.00;;
351;SDS011;164;50.784;6.496;2023-05-16T07:46:05;7.05;;;1.83;;
351;SDS011;164;50.784;6.496;2023-05-16T07:48:32;5.20;;;2.30;;
351;SDS011;164;50.784;6.496;2023-05-16T07:50:59;4.30;;;2.70;;
351;SDS011;164;50.784;6.496;2023-05-16T07:53:27;5.28;;;2.40;;
351;SDS011;164;50.784;6.496;2023-05-16T07:55:54;4.40;;;2.10;;
351;SDS011;164;50.784;6.496;2023-05-16T07:58:21;5.90;;;2.05;;
351;SDS011;164;50.784;6.496;2023-05-16T08:00:48;5.40;;;2.55;;
351;SDS011;164;50.784;6.496;2023-05-16T08:03:17;7.90;;;2.85;;
351;SDS011;164;50.784;6.496;2023-05-16T08:05:44;4.80;;;2.47;;
351;SDS011;164;50.784;6.496;2023-05-16T08:08:12;5.90;;;3.10;;
351;SDS011;164;50.784;6.496;2023-05-16T08:10:40;5.50;;;2.42;;
351;SDS011;164;50.784;6.496;2023-05-16T08:13:07;6.40;;;3.15;;
351;SDS011;164;50.784;6.496;2023-05-16T08:15:34;5.53;;;2.63;;
351;SDS011;164;50.784;6.496;2023-05-16T08:18:01;12.10;;;2.53;;
351;SDS011;164;50.784;6.496;2023-05-16T08:20:32;3.85;;;1.67;;
351;SDS011;164;50.784;6.496;2023-05-16T08:22:59;7.75;;;1.70;;
351;SDS011;164;50.784;6.496;2023-05-16T08:25:26;7.40;;;2.78;;
351;SDS011;164;50.784;6.496;2023-05-16T08:27:53;2.70;;;1.70;;
351;SDS011;164;50.784;6.496;2023-05-16T08:30:21;8.25;;;2.40;;
351;SDS011;164;50.784;6.496;2023-05-16T08:32:48;6.32;;;2.03;;
351;SDS011;164;50.784;6.496;2023-05-16T08:35:15;8.27;;;2.10;;
351;SDS011;164;50.784;6.496;2023-05-16T08:37:44;4.63;;;1.40;;
351;SDS011;164;50.784;6.496;2023-05-16T08:40:11;7.88;;;2.55;;
351;SDS011;164;50.784;6.496;2023-05-16T08:42:39;4.97;;;2.03;;
351;SDS011;164;50.784;6.496;2023-05-16T08:45:07;5.22;;;2.22;;
351;SDS011;164;50.784;6.496;2023-05-16T08:47:34;5.43;;;2.35;;
351;SDS011;164;50.784;6.496;2023-05-16T08:50:02;4.68;;;1.83;;
351;SDS011;164;50.784;6.496;2023-05-16T08:52:30;4.72;;;2.05;;
351;SDS011;164;50.784;6.496;2023-05-16T08:55:00;3.33;;;1.85;;
351;SDS011;164;50.784;6.496;2023-05-16T08:57:29;8.85;;;2.50;;
351;SDS011;164;50.784;6.496;2023-05-16T08:59:56;10.60;;;2.20;;
351;SDS011;164;50.784;6.496;2023-05-16T09:02:24;5.05;;;2.03;;
351;SDS011;164;50.784;6.496;2023-05-16T09:04:51;9.65;;;3.00;;
351;SDS011;164;50.784;6.496;2023-05-16T09:07:19;9.82;;;2.75;;
351;SDS011;164;50.784;6.496;2023-05-16T09:09:46;6.60;;;2.08;;
351;SDS011;164;50.784;6.496;2023-05-16T09:12:14;5.35;;;1.73;;
351;SDS011;164;50.784;6.496;2023-05-16T09:14:41;3.13;;;1.65;;
351;SDS011;164;50.784;6.496;2023-05-16T09:17:09;3.28;;;1.30;;
351;SDS011;164;50.784;6.496;2023-05-16T09:19:37;4.82;;;2.28;;
351;SDS011;164;50.784;6.496;2023-05-16T09:22:05;4.05;;;1.20;;
351;SDS011;164;50.784;6.496;2023-05-16T09:24:35;3.70;;;1.75;;
351;SDS011;164;50.784;6.496;2023-05-16T09:27:06;9.15;;;2.35;;
351;SDS011;164;50.784;6.496;2023-05-16T09:29:35;6.90;;;1.90;;
351;SDS011;164;50.784;6.496;2023-05-16T09:32:09;4.85;;;1.88;;
351;SDS011;164;50.784;6.496;2023-05-16T09:34:37;4.78;;;1.92;;
351;SDS011;164;50.784;6.496;2023-05-16T09:37:06;3.50;;;1.95;;
351;SDS011;164;50.784;6.496;2023-05-16T09:39:35;3.92;;;1.17;;
351;SDS011;164;50.784;6.496;2023-05-16T09:42:03;5.53;;;1.67;;
351;SDS011;164;50.784;6.496;2023-05-16T09:44:30;3.10;;;1.70;;
351;SDS011;164;50.784;6.496;2023-05-16T09:46:59;5.35;;;1.10;;
351;SDS011;164;50.784;6.496;2023-05-16T09:49:26;4.28;;;1.42;;
351;SDS011;164;50.784;6.496;2023-05-16T09:51:54;3.88;;;1.25;;
351;SDS011;164;50.784;6.496;2023-05-16T09:54:28;4.25;;;2.35;;
351;SDS011;164;50.784;6.496;2023-05-16T09:56:57;3.72;;;1.92;;
351;SDS011;164;50.784;6.496;2023-05-16T09:59:24;4.50;;;2.33;;
351;SDS011;164;50.784;6.496;2023-05-16T10:01:51;4.07;;;1.65;;
351;SDS011;164;50.784;6.496;2023-05-16T10:04:21;3.92;;;1.65;;
351;SDS011;164;50.784;6.496;2023-05-16T10:06:48;4.38;;;1.75;;
351;SDS011;164;50.784;6.496;2023-05-16T10:09:16;3.08;;;1.90;;
351;SDS011;164;50.784;6.496;2023-05-16T10:11:44;6.65;;;1.90;;
351;SDS011;164;50.784;6.496;2023-05-16T10:14:12;2.58;;;1.10;;
351;SDS011;164;50.784;6.496;2023-05-16T10:16:41;6.13;;;1.85;;
351;SDS011;164;50.784;6.496;2023-05-16T10:19:09;6.30;;;1.95;;
351;SDS011;164;50.784;6.496;2023-05-16T10:21:38;3.00;;;1.10;;
351;SDS011;164;50.784;6.496;2023-05-16T10:24:06;4.78;;;1.35;;
351;SDS011;164;50.784;6.496;2023-05-16T10:26:37;4.63;;;1.40;;
351;SDS011;164;50.784;6.496;2023-05-16T10:29:04;3.63;;;1.65;;
351;SDS011;164;50.784;6.496;2023-05-16T10:31:31;9.40;;;2.40;;
351;SDS011;164;50.784;6.496;2023-05-16T10:33:59;4.65;;;1.90;;
351;SDS011;164;50.784;6.496;2023-05-16T10:36:26;4.57;;;1.40;;
351;SDS011;164;50.784;6.496;2023-05-16T10:38:55;2.40;;;1.30;;
351;SDS011;164;50.784;6.496;2023-05-16T10:41:23;3.58;;;1.58;;
351;SDS011;164;50.784;6.496;2023-05-16T10:43:57;3.28;;;1.20;;
351;SDS011;164;50.784;6.496;2023-05-16T10:46:25;3.67;;;2.08;;
351;SDS011;164;50.784;6.496;2023-05-16T10:48:53;3.55;;;2.25;;
351;SDS011;164;50.784;6.496;2023-05-16T10:51:33;4.72;;;2.67;;
351;SDS011;164;50.784;6.496;2023-05-16T10:54:06;4.65;;;1.83;;
351;SDS011;164;50.784;6.496;2023-05-16T10:56:34;9.52;;;2.65;;
351;SDS011;164;50.784;6.496;2023-05-16T10:59:01;6.05;;;2.08;;
351;SDS011;164;50.784;6.496;2023-05-16T11:01:30;3.53;;;1.38;;
351;SDS011;164;50.784;6.496;2023-05-16T11:04:05;3.50;;;1.33;;
351;SDS011;164;50.784;6.496;2023-05-16T11:06:33;2.85;;;1.35;;
351;SDS011;164;50.784;6.496;2023-05-16T11:09:04;4.95;;;1.42;;
351;SDS011;164;50.784;6.496;2023-05-16T11:11:41;2.42;;;1.45;;
351;SDS011;164;50.784;6.496;2023-05-16T11:14:16;2.20;;;1.38;;
351;SDS011;164;50.784;6.496;2023-05-16T11:16:47;3.03;;;1.20;;
351;SDS011;164;50.784;6.496;2023-05-16T11:19:18;5.20;;;1.48;;
351;SDS011;164;50.784;6.496;2023-05-16T11:22:10;6.20;;;2.10;;
351;SDS011;164;50.784;6.496;2023-05-16T11:24:47;3.38;;;1.30;;
351;SDS011;164;50.784;6.496;2023-05-16T11:27:20;4.80;;;1.75;;
351;SDS011;164;50.784;6.496;2023-05-16T11:29:47;2.95;;;1.38;;
351;SDS011;164;50.784;6.496;2023-05-16T11:32:17;2.58;;;1.50;;
351;SDS011;164;50.784;6.496;2023-05-16T11:34:45;4.03;;;1.85;;
351;SDS011;164;50.784;6.496;2023-05-16T11:37:12;3.53;;;1.73;;
351;SDS011;164;50.784;6.496;2023-05-16T11:39:40;2.53;;;1.45;;
351;SDS011;164;50.784;6.496;2023-05-16T11:42:07;3.63;;;1.33;;
351;SDS011;164;50.784;6.496;2023-05-16T11:44:36;7.57;;;2.13;;
351;SDS011;164;50.784;6.496;2023-05-16T11:47:03;2.35;;;1.23;;
351;SDS011;164;50.784;6.496;2023-05-16T11:49:31;5.43;;;1.10;;
351;SDS011;164;50.784;6.496;2023-05-16T11:52:00;4.65;;;1.90;;
351;SDS011;164;50.784;6.496;2023-05-16T11:54:27;2.78;;;1.02;;
351;SDS011;164;50.784;6.496;2023-05-16T11:56:54;2.33;;;1.00;;
351;SDS011;164;50.784;6.496;2023-05-16T11:59:22;2.15;;;1.35;;
351;SDS011;164;50.784;6.496;2023-05-16T12:01:50;3.30;;;1.17;;
351;SDS011;164;50.784;6.496;2023-05-16T12:04:18;3.60;;;1.27;;
351;SDS011;164;50.784;6.496;2023-05-16T12:06:56;3.30;;;1.10;;
351;SDS011;164;50.784;6.496;2023-05-16T12:09:23;2.70;;;1.23;;
351;SDS011;164;50.784;6.496;2023-05-16T12:11:50;3.53;;;1.23;;
351;SDS011;164;50.784;6.496;2023-05-16T12:14:18;4.30;;;1.00;;
351;SDS011;164;50.784;6.496;2023-05-16T12:16:46;6.28;;;1.50;;
351;SDS011;164;50.784;6.496;2023-05-16T12:19:14;2.92;;;1.15;;
351;SDS011;164;50.784;6.496;2023-05-16T12:21:42;3.00;;;1.50;;
351;SDS011;164;50.784;6.496;2023-05-16T12:24:09;4.30;;;1.10;;
351;SDS011;164;50.784;6.496;2023-05-16T12:26:38;2.60;;;1.83;;
351;SDS011;164;50.784;6.496;2023-05-16T12:29:05;2.97;;;1.10;;
351;SDS011;164;50.784;6.496;2023-05-16T12:31:34;2.85;;;1.27;;
351;SDS011;164;50.784;6.496;2023-05-16T12:34:02;3.60;;;1.10;;
351;SDS011;164;50.784;6.496;2023-05-16T12:36:31;2.90;;;1.25;;
351;SDS011;164;50.784;6.496;2023-05-16T12:38:59;2.65;;;1.23;;
351;SDS011;164;50.784;6.496;2023-05-16T12:41:28;2.75;;;1.20;;
351;SDS011;164;50.784;6.496;2023-05-16T12:44:05;1.60;;;0.90;;
351;SDS011;164;50.784;6.496;2023-05-16T12:46:32;3.72;;;1.80;;
351;SDS011;164;50.784;6.496;2023-05-16T12:49:00;3.60;;;2.50;;
351;SDS011;164;50.784;6.496;2023-05-16T12:51:31;2.70;;;1.80;;
351;SDS011;164;50.784;6.496;2023-05-16T12:54:05;5.97;;;1.45;;
351;SDS011;164;50.784;6.496;2023-05-16T12:56:32;2.03;;;0.90;;
351;SDS011;164;50.784;6.496;2023-05-16T12:59:00;3.72;;;1.73;;
351;SDS011;164;50.784;6.496;2023-05-16T13:01:27;2.17;;;1.30;;
351;SDS011;164;50.784;6.496;2023-05-16T13:03:55;4.90;;;0.70;;
351;SDS011;164;50.784;6.496;2023-05-16T13:06:22;5.43;;;0.80;;
351;SDS011;164;50.784;6.496;2023-05-16T13:08:51;3.05;;;0.75;;
351;SDS011;164;50.784;6.496;2023-05-16T13:11:18;2.63;;;0.95;;
351;SDS011;164;50.784;6.496;2023-05-16T13:13:45;3.70;;;1.17;;
351;SDS011;164;50.784;6.496;2023-05-16T13:16:12;1.80;;;0.65;;
351;SDS011;164;50.784;6.496;2023-05-16T13:18:39;3.20;;;1.10;;
351;SDS011;164;50.784;6.496;2023-05-16T13:21:06;0.95;;;0.70;;
351;SDS011;164;50.784;6.496;2023-05-16T13:23:33;1.63;;;0.80;;
351;SDS011;164;50.784;6.496;2023-05-16T13:26:03;2.15;;;1.00;;
351;SDS011;164;50.784;6.496;2023-05-16T13:28:30;2.92;;;0.95;;
351;SDS011;164;50.784;6.496;2023-05-16T13:30:57;0.93;;;0.70;;
351;SDS011;164;50.784;6.496;2023-05-16T13:33:25;2.10;;;0.70;;
351;SDS011;164;50.784;6.496;2023-05-16T13:35:52;1.00;;;0.50;;
351;SDS011;164;50.784;6.496;2023-05-16T13:38:20;1.50;;;0.68;;
351;SDS011;164;50.784;6.496;2023-05-16T13:40:48;2.10;;;1.08;;
351;SDS011;164;50.784;6.496;2023-05-16T13:43:16;3.25;;;0.85;;
351;SDS011;164;50.784;6.496;2023-05-16T13:45:43;5.20;;;1.20;;
351;SDS011;164;50.784;6.496;2023-05-16T13:48:11;2.85;;;1.10;;
351;SDS011;164;50.784;6.496;2023-05-16T13:50:38;4.22;;;0.90;;
351;SDS011;164;50.784;6.496;2023-05-16T13:53:06;3.20;;;1.05;;
351;SDS011;164;50.784;6.496;2023-05-16T13:55:33;2.50;;;1.02;;
351;SDS011;164;50.784;6.496;2023-05-16T13:58:00;3.70;;;1.27;;
351;SDS011;164;50.784;6.496;2023-05-16T14:00:29;6.10;;;1.33;;
351;SDS011;164;50.784;6.496;2023-05-16T14:02:56;2.80;;;1.20;;
351;SDS011;164;50.784;6.496;2023-05-16T14:05:23;3.10;;;1.15;;
351;SDS011;164;50.784;6.496;2023-05-16T14:07:51;3.25;;;1.10;;
351;SDS011;164;50.784;6.496;2023-05-16T14:10:18;4.65;;;1.30;;
351;SDS011;164;50.784;6.496;2023-05-16T14:12:45;3.45;;;1.42;;
351;SDS011;164;50.784;6.496;2023-05-16T14:15:13;4.60;;;1.55;;
351;SDS011;164;50.784;6.496;2023-05-16T14:17:41;3.83;;;1.42;;
351;SDS011;164;50.784;6.496;2023-05-16T14:20:09;4.00;;;1.30;;
351;SDS011;164;50.784;6.496;2023-05-16T14:22:36;2.25;;;1.40;;
351;SDS011;164;50.784;6.496;2023-05-16T14:25:04;2.03;;;0.80;;
351;SDS011;164;50.784;6.496;2023-05-16T14:27:32;6.43;;;1.70;;
351;SDS011;164;50.784;6.496;2023-05-16T14:29:59;2.05;;;1.15;;
351;SDS011;164;50.784;6.496;2023-05-16T14:32:27;1.42;;;0.70;;
351;SDS011;164;50.784;6.496;2023-05-16T14:34:55;1.48;;;0.90;;
351;SDS011;164;50.784;6.496;2023-05-16T14:37:22;3.25;;;1.13;;
351;SDS011;164;50.784;6.496;2023-05-16T14:39:50;4.18;;;1.50;;
351;SDS011;164;50.784;6.496;2023-05-16T14:42:19;7.50;;;1.25;;
351;SDS011;164;50.784;6.496;2023-05-16T14:44:47;1.33;;;0.82;;
351;SDS011;164;50.784;6.496;2023-05-16T14:47:14;3.20;;;1.60;;
351;SDS011;164;50.784;6.496;2023-05-16T14:49:41;1.20;;;0.90;;
351;SDS011;164;50.784;6.496;2023-05-16T14:52:10;4.32;;;1.70;;
351;SDS011;164;50.784;6.496;2023-05-16T14:54:37;1.52;;;1.23;;
351;SDS011;164;50.784;6.496;2023-05-16T14:57:04;1.90;;;1.50;;
351;SDS011;164;50.784;6.496;2023-05-16T14:59:32;2.80;;;1.20;;
351;SDS011;164;50.784;6.496;2023-05-16T15:01:59;3.17;;;1.20;;
351;SDS011;164;50.784;6.496;2023-05-16T15:04:28;2.78;;;1.00;;
351;SDS011;164;50.784;6.496;2023-05-16T15:06:55;3.65;;;1.20;;
351;SDS011;164;50.784;6.496;2023-05-16T15:09:24;2.85;;;1.10;;
351;SDS011;164;50.784;6.496;2023-05-16T15:11:51;2.33;;;1.33;;
351;SDS011;164;50.784;6.496;2023-05-16T15:14:19;2.80;;;1.00;;
351;SDS011;164;50.784;6.496;2023-05-16T15:16:46;2.30;;;1.30;;
351;SDS011;164;50.784;6.496;2023-05-16T15:19:13;3.60;;;1.15;;
351;SDS011;164;50.784;6.496;2023-05-16T15:21:40;3.10;;;1.02;;
351;SDS011;164;50.784;6.496;2023-05-16T15:24:07;2.97;;;1.40;;
351;SDS011;164;50.784;6.496;2023-05-16T15:26:38;3.30;;;1.52;;
351;SDS011;164;50.784;6.496;2023-05-16T15:29:05;2.65;;;1.40;;
351;SDS011;164;50.784;6.496;2023-05-16T15:31:32;3.25;;;1.20;;
351;SDS011;164;50.784;6.496;2023-05-16T15:34:00;3.58;;;1.40;;
351;SDS011;164;50.784;6.496;2023-05-16T15:36:27;3.10;;;1.17;;
351;SDS011;164;50.784;6.496;2023-05-16T15:38:54;2.33;;;1.60;;
351;SDS011;164;50.784;6.496;2023-05-16T15:41:21;2.58;;;1.15;;
351;SDS011;164;50.784;6.496;2023-05-16T15:43:50;3.58;;;1.23;;
351;SDS011;164;50.784;6.496;2023-05-16T15:46:17;3.15;;;1.27;;